sensor_id;sensor_type;location;lat;lon;timestamp;pressure;altitude;pressure_sealevel;temperature
51149;BMP280;37210;50.058;8.688;2023-03-11T00:00:14;99122.13;;;4.81
51149;BMP280;37210;50.058;8.688;2023-03-11T00:02:45;99124.75;;;4.92
51149;BMP280;37210;50.058;8.688;2023-03-11T00:05:16;99128.16;;;4.85
51149;BMP280;37210;50.058;8.688;2023-03-11T00:07:44;99105.63;;;4.63
51149;BMP280;37210;50.058;8.688;2023-03-11T00:10:14;99103.97;;;4.75
51149;BMP280;37210;50.058;8.688;2023-03-11T00:12:42;99126.41;;;4.76
51149;BMP280;37210;50.058;8.688;2023-03-11T00:15:13;99126.34;;;4.67
51149;BMP280;37210;50.058;8.688;2023-03-11T00:17:41;99099.50;;;4.50
51149;BMP280;37210;50.058;8.688;2023-03-11T00:20:15;99129.00;;;4.81
51149;BMP280;37210;50.058;8.688;2023-03-11T00:22:48;99082.09;;;4.25
51149;BMP280;37210;50.058;8.688;2023-03-11T00:25:17;99145.31;;;4.60
51149;BMP280;37210;50.058;8.688;2023-03-11T00:27:46;99109.72;;;4.31
51149;BMP280;37210;50.058;8.688;2023-03-11T00:30:15;99098.38;;;4.14
51149;BMP280;37210;50.058;8.688;2023-03-11T00:32:46;99152.88;;;4.35
51149;BMP280;37210;50.058;8.688;2023-03-11T00:35:17;99099.16;;;4.02
51149;BMP280;37210;50.058;8.688;2023-03-11T00:37:46;99152.84;;;4.30
51149;BMP280;37210;50.058;8.688;2023-03-11T00:40:16;99147.81;;;4.53
51149;BMP280;37210;50.058;8.688;2023-03-11T00:42:47;99147.75;;;4.42
51149;BMP280;37210;50.058;8.688;2023-03-11T00:45:15;99145.91;;;4.26
51149;BMP280;37210;50.058;8.688;2023-03-11T00:47:43;99139.03;;;4.27
51149;BMP280;37210;50.058;8.688;2023-03-11T00:50:15;99130.31;;;4.16
51149;BMP280;37210;50.058;8.688;2023-03-11T00:52:49;99155.41;;;4.26
51149;BMP280;37210;50.058;8.688;2023-03-11T00:55:19;99150.13;;;4.12
51149;BMP280;37210;50.058;8.688;2023-03-11T00:57:52;99151.94;;;4.24
51149;BMP280;37210;50.058;8.688;2023-03-11T01:00:22;99156.22;;;4.22
51149;BMP280;37210;50.058;8.688;2023-03-11T01:02:54;99162.97;;;4.01
51149;BMP280;37210;50.058;8.688;2023-03-11T01:05:24;99170.69;;;3.97
51149;BMP280;37210;50.058;8.688;2023-03-11T01:07:55;99154.28;;;3.95
51149;BMP280;37210;50.058;8.688;2023-03-11T01:10:23;99177.66;;;4.04
51149;BMP280;37210;50.058;8.688;2023-03-11T01:12:52;99180.25;;;4.02
51149;BMP280;37210;50.058;8.688;2023-03-11T01:15:22;99190.50;;;3.96
51149;BMP280;37210;50.058;8.688;2023-03-11T01:17:51;99171.44;;;3.87
51149;BMP280;37210;50.058;8.688;2023-03-11T01:20:19;99182.88;;;4.09
51149;BMP280;37210;50.058;8.688;2023-03-11T01:22:47;99190.56;;;4.01
51149;BMP280;37210;50.058;8.688;2023-03-11T01:25:17;99186.34;;;4.14
51149;BMP280;37210;50.058;8.688;2023-03-11T01:27:45;99172.56;;;4.15
51149;BMP280;37210;50.058;8.688;2023-03-11T01:30:18;99173.09;;;3.80
51149;BMP280;37210;50.058;8.688;2023-03-11T01:32:47;99177.56;;;3.95
51149;BMP280;37210;50.058;8.688;2023-03-11T01:35:17;99158.41;;;3.76
51149;BMP280;37210;50.058;8.688;2023-03-11T01:37:46;99188.94;;;4.11
51149;BMP280;37210;50.058;8.688;2023-03-11T01:40:16;99183.72;;;4.06
51149;BMP280;37210;50.058;8.688;2023-03-11T01:42:46;99182.88;;;4.13
51149;BMP280;37210;50.058;8.688;2023-03-11T01:45:35;99190.69;;;4.15
51149;BMP280;37210;50.058;8.688;2023-03-11T01:48:08;99184.50;;;3.99
51149;BMP280;37210;50.058;8.688;2023-03-11T01:50:40;99200.00;;;3.99
51149;BMP280;37210;50.058;8.688;2023-03-11T01:53:12;99203.38;;;3.87
51149;BMP280;37210;50.058;8.688;2023-03-11T01:55:42;99200.72;;;3.83
51149;BMP280;37210;50.058;8.688;2023-03-11T01:58:15;99211.91;;;3.82
51149;BMP280;37210;50.058;8.688;2023-03-11T02:00:45;99211.13;;;3.87
51149;BMP280;37210;50.058;8.688;2023-03-11T02:03:17;99221.53;;;3.95
51149;BMP280;37210;50.058;8.688;2023-03-11T02:05:49;99190.03;;;3.51
51149;BMP280;37210;50.058;8.688;2023-03-11T02:08:18;99224.63;;;3.61
51149;BMP280;37210;50.058;8.688;2023-03-11T02:10:47;99237.72;;;3.76
51149;BMP280;37210;50.058;8.688;2023-03-11T02:13:16;99235.16;;;3.79
51149;BMP280;37210;50.058;8.688;2023-03-11T02:15:47;99196.09;;;3.55
51149;BMP280;37210;50.058;8.688;2023-03-11T02:18:16;99237.78;;;3.82
51149;BMP280;37210;50.058;8.688;2023-03-11T02:20:49;99219.84;;;3.97
51149;BMP280;37210;50.058;8.688;2023-03-11T02:23:27;99215.41;;;3.87
51149;BMP280;37210;50.058;8.688;2023-03-11T02:26:06;99182.47;;;3.68
51149;BMP280;37210;50.058;8.688;2023-03-11T02:28:41;99230.16;;;3.95
51149;BMP280;37210;50.058;8.688;2023-03-11T02:31:10;99215.59;;;4.03
51149;BMP280;37210;50.058;8.688;2023-03-11T02:33:38;99226.09;;;4.17
51149;BMP280;37210;50.058;8.688;2023-03-11T02:36:29;99213.78;;;3.93
51149;BMP280;37210;50.058;8.688;2023-03-11T02:38:58;99210.41;;;4.02
51149;BMP280;37210;50.058;8.688;2023-03-11T02:41:25;99234.53;;;3.99
51149;BMP280;37210;50.058;8.688;2023-03-11T02:43:55;99225.97;;;4.08
51149;BMP280;37210;50.058;8.688;2023-03-11T02:46:24;99225.94;;;4.02
51149;BMP280;37210;50.058;8.688;2023-03-11T02:48:53;99234.47;;;3.92
51149;BMP280;37210;50.058;8.688;2023-03-11T02:51:22;99220.72;;;3.99
51149;BMP280;37210;50.058;8.688;2023-03-11T02:53:53;99219.66;;;3.79
51149;BMP280;37210;50.058;8.688;2023-03-11T02:56:24;99224.88;;;3.85
51149;BMP280;37210;50.058;8.688;2023-03-11T02:58:52;99229.31;;;3.96
51149;BMP280;37210;50.058;8.688;2023-03-11T03:01:21;99226.78;;;4.01
51149;BMP280;37210;50.058;8.688;2023-03-11T03:03:50;99233.59;;;3.93
51149;BMP280;37210;50.058;8.688;2023-03-11T03:06:17;99241.66;;;4.23
51149;BMP280;37210;50.058;8.688;2023-03-11T03:08:44;99246.59;;;4.00
51149;BMP280;37210;50.058;8.688;2023-03-11T03:11:12;99171.94;;;3.50
51149;BMP280;37210;50.058;8.688;2023-03-11T03:13:40;99233.53;;;3.87
51149;BMP280;37210;50.058;8.688;2023-03-11T03:16:07;99261.03;;;3.80
51149;BMP280;37210;50.058;8.688;2023-03-11T03:18:36;99254.09;;;3.75
51149;BMP280;37210;50.058;8.688;2023-03-11T03:21:06;99259.38;;;3.87
51149;BMP280;37210;50.058;8.688;2023-03-11T03:23:34;99267.19;;;3.90
51149;BMP280;37210;50.058;8.688;2023-03-11T03:26:03;99266.31;;;3.89
51149;BMP280;37210;50.058;8.688;2023-03-11T03:28:32;99267.84;;;3.72
51149;BMP280;37210;50.058;8.688;2023-03-11T03:31:03;99193.44;;;3.44
51149;BMP280;37210;50.058;8.688;2023-03-11T03:33:32;99249.56;;;3.56
51149;BMP280;37210;50.058;8.688;2023-03-11T03:36:05;99168.91;;;3.13
51149;BMP280;37210;50.058;8.688;2023-03-11T03:38:38;99281.00;;;3.92
51149;BMP280;37210;50.058;8.688;2023-03-11T03:41:06;99248.16;;;3.85
51149;BMP280;37210;50.058;8.688;2023-03-11T03:43:36;99281.59;;;3.71
51149;BMP280;37210;50.058;8.688;2023-03-11T03:46:04;99282.63;;;3.84
51149;BMP280;37210;50.058;8.688;2023-03-11T03:48:40;99292.84;;;3.72
51149;BMP280;37210;50.058;8.688;2023-03-11T03:51:12;99293.81;;;3.81
51149;BMP280;37210;50.058;8.688;2023-03-11T03:53:56;99291.19;;;3.77
51149;BMP280;37210;50.058;8.688;2023-03-11T03:56:25;99293.84;;;3.86
51149;BMP280;37210;50.058;8.688;2023-03-11T03:58:53;99309.22;;;3.71
51149;BMP280;37210;50.058;8.688;2023-03-11T04:01:22;99303.94;;;3.63
51149;BMP280;37210;50.058;8.688;2023-03-11T04:03:49;99262.41;;;3.48
51149;BMP280;37210;50.058;8.688;2023-03-11T04:06:20;99147.66;;;2.67
51149;BMP280;37210;50.058;8.688;2023-03-11T04:08:55;99301.38;;;3.66
51149;BMP280;37210;50.058;8.688;2023-03-11T04:11:27;99311.00;;;3.76
51149;BMP280;37210;50.058;8.688;2023-03-11T04:13:55;99288.19;;;3.47
51149;BMP280;37210;50.058;8.688;2023-03-11T04:16:23;99285.13;;;3.76
51149;BMP280;37210;50.058;8.688;2023-03-11T04:18:57;99321.66;;;4.02
51149;BMP280;37210;50.058;8.688;2023-03-11T04:21:26;99331.00;;;3.89
51149;BMP280;37210;50.058;8.688;2023-03-11T04:23:54;99320.31;;;3.62
51149;BMP280;37210;50.058;8.688;2023-03-11T04:26:27;99326.59;;;3.84
51149;BMP280;37210;50.058;8.688;2023-03-11T04:28:56;99282.13;;;3.43
51149;BMP280;37210;50.058;8.688;2023-03-11T04:31:26;99273.56;;;3.46
51149;BMP280;37210;50.058;8.688;2023-03-11T04:33:54;99330.97;;;3.88
51149;BMP280;37210;50.058;8.688;2023-03-11T04:36:21;99327.47;;;3.86
51149;BMP280;37210;50.058;8.688;2023-03-11T04:38:50;99333.81;;;4.11
51149;BMP280;37210;50.058;8.688;2023-03-11T04:41:19;99348.53;;;4.15
51149;BMP280;37210;50.058;8.688;2023-03-11T04:43:47;99350.13;;;4.05
51149;BMP280;37210;50.058;8.688;2023-03-11T04:46:15;99350.19;;;4.11
51149;BMP280;37210;50.058;8.688;2023-03-11T04:48:43;99355.25;;;4.00
51149;BMP280;37210;50.058;8.688;2023-03-11T04:51:10;99362.25;;;4.09
51149;BMP280;37210;50.058;8.688;2023-03-11T04:53:38;99351.06;;;4.10
51149;BMP280;37210;50.058;8.688;2023-03-11T04:56:07;99358.91;;;4.18
51149;BMP280;37210;50.058;8.688;2023-03-11T04:58:37;99366.66;;;4.16
51149;BMP280;37210;50.058;8.688;2023-03-11T05:01:05;99361.44;;;4.13
51149;BMP280;37210;50.058;8.688;2023-03-11T05:03:32;99286.16;;;3.90
51149;BMP280;37210;50.058;8.688;2023-03-11T05:06:00;99344.31;;;4.24
51149;BMP280;37210;50.058;8.688;2023-03-11T05:08:28;99321.53;;;3.93
51149;BMP280;37210;50.058;8.688;2023-03-11T05:10:55;99362.31;;;4.14
51149;BMP280;37210;50.058;8.688;2023-03-11T05:13:24;99340.72;;;4.10
51149;BMP280;37210;50.058;8.688;2023-03-11T05:15:52;99367.28;;;3.97
51149;BMP280;37210;50.058;8.688;2023-03-11T05:18:20;99369.03;;;3.99
51149;BMP280;37210;50.058;8.688;2023-03-11T05:20:49;99343.72;;;3.76
51149;BMP280;37210;50.058;8.688;2023-03-11T05:23:19;99379.31;;;3.95
51149;BMP280;37210;50.058;8.688;2023-03-11T05:25:47;99345.34;;;3.66
51149;BMP280;37210;50.058;8.688;2023-03-11T05:28:14;99386.25;;;3.96
51149;BMP280;37210;50.058;8.688;2023-03-11T05:30:49;99354.06;;;3.73
51149;BMP280;37210;50.058;8.688;2023-03-11T05:33:18;99394.09;;;4.05
51149;BMP280;37210;50.058;8.688;2023-03-11T05:35:46;99391.69;;;4.19
51149;BMP280;37210;50.058;8.688;2023-03-11T05:38:13;99355.22;;;3.96
51149;BMP280;37210;50.058;8.688;2023-03-11T05:40:41;99343.88;;;3.86
51149;BMP280;37210;50.058;8.688;2023-03-11T05:43:09;99385.66;;;4.17
51149;BMP280;37210;50.058;8.688;2023-03-11T05:45:40;99402.13;;;4.23
51149;BMP280;37210;50.058;8.688;2023-03-11T05:48:09;99351.81;;;4.03
51149;BMP280;37210;50.058;8.688;2023-03-11T05:50:37;99392.53;;;4.18
51149;BMP280;37210;50.058;8.688;2023-03-11T05:53:05;99393.44;;;4.20
51149;BMP280;37210;50.058;8.688;2023-03-11T05:55:33;99391.81;;;4.29
51149;BMP280;37210;50.058;8.688;2023-03-11T05:58:00;99339.69;;;3.96
51149;BMP280;37210;50.058;8.688;2023-03-11T06:00:27;99391.59;;;4.10
51149;BMP280;37210;50.058;8.688;2023-03-11T06:02:57;99403.50;;;3.95
51149;BMP280;37210;50.058;8.688;2023-03-11T06:05:26;99401.59;;;3.84
51149;BMP280;37210;50.058;8.688;2023-03-11T06:07:55;99363.66;;;3.83
51149;BMP280;37210;50.058;8.688;2023-03-11T06:10:23;99407.09;;;4.10
51149;BMP280;37210;50.058;8.688;2023-03-11T06:12:51;99417.59;;;4.19
51149;BMP280;37210;50.058;8.688;2023-03-11T06:15:25;99418.25;;;4.04
51149;BMP280;37210;50.058;8.688;2023-03-11T06:17:53;99248.09;;;3.08
51149;BMP280;37210;50.058;8.688;2023-03-11T06:20:21;99419.44;;;4.30
51149;BMP280;37210;50.058;8.688;2023-03-11T06:22:50;99423.59;;;4.16
51149;BMP280;37210;50.058;8.688;2023-03-11T06:25:21;99401.84;;;4.02
51149;BMP280;37210;50.058;8.688;2023-03-11T06:27:50;99418.19;;;3.98
51149;BMP280;37210;50.058;8.688;2023-03-11T06:30:20;99439.97;;;4.15
51149;BMP280;37210;50.058;8.688;2023-03-11T06:32:59;99440.75;;;4.11
51149;BMP280;37210;50.058;8.688;2023-03-11T06:35:27;99450.41;;;4.23
51149;BMP280;37210;50.058;8.688;2023-03-11T06:37:56;99432.16;;;4.11
51149;BMP280;37210;50.058;8.688;2023-03-11T06:40:23;99414.94;;;4.13
51149;BMP280;37210;50.058;8.688;2023-03-11T06:42:51;99462.59;;;4.31
51149;BMP280;37210;50.058;8.688;2023-03-11T06:45:21;99462.75;;;4.45
51149;BMP280;37210;50.058;8.688;2023-03-11T06:47:49;99456.81;;;4.52
51149;BMP280;37210;50.058;8.688;2023-03-11T06:50:16;99456.00;;;4.56
51149;BMP280;37210;50.058;8.688;2023-03-11T06:52:44;99470.56;;;4.48
51149;BMP280;37210;50.058;8.688;2023-03-11T06:55:13;99448.22;;;4.54
51149;BMP280;37210;50.058;8.688;2023-03-11T06:57:41;99475.88;;;4.60
51149;BMP280;37210;50.058;8.688;2023-03-11T07:00:11;99473.47;;;4.73
51149;BMP280;37210;50.058;8.688;2023-03-11T07:02:43;99472.66;;;4.77
51149;BMP280;37210;50.058;8.688;2023-03-11T07:05:11;99438.00;;;4.68
51149;BMP280;37210;50.058;8.688;2023-03-11T07:07:39;99464.22;;;5.01
51149;BMP280;37210;50.058;8.688;2023-03-11T07:10:07;99455.28;;;4.69
51149;BMP280;37210;50.058;8.688;2023-03-11T07:12:38;99405.16;;;4.65
51149;BMP280;37210;50.058;8.688;2023-03-11T07:15:06;99503.03;;;4.92
51149;BMP280;37210;50.058;8.688;2023-03-11T07:17:35;99484.78;;;4.84
51149;BMP280;37210;50.058;8.688;2023-03-11T07:20:03;99511.66;;;4.93
51149;BMP280;37210;50.058;8.688;2023-03-11T07:22:31;99499.44;;;4.82
51149;BMP280;37210;50.058;8.688;2023-03-11T07:24:59;99455.28;;;4.69
51149;BMP280;37210;50.058;8.688;2023-03-11T07:27:27;99521.22;;;5.00
51149;BMP280;37210;50.058;8.688;2023-03-11T07:29:56;99521.19;;;4.95
51149;BMP280;37210;50.058;8.688;2023-03-11T07:32:23;99515.09;;;4.90
51149;BMP280;37210;50.058;8.688;2023-03-11T07:34:51;99505.56;;;4.89
51149;BMP280;37210;50.058;8.688;2023-03-11T07:37:19;99536.72;;;4.95
51149;BMP280;37210;50.058;8.688;2023-03-11T07:39:46;99543.69;;;4.99
51149;BMP280;37210;50.058;8.688;2023-03-11T07:42:14;99465.63;;;4.69
51149;BMP280;37210;50.058;8.688;2023-03-11T07:44:43;99557.00;;;5.32
51149;BMP280;37210;50.058;8.688;2023-03-11T07:47:12;99531.22;;;5.49
51149;BMP280;37210;50.058;8.688;2023-03-11T07:49:39;99508.84;;;5.58
51149;BMP280;37210;50.058;8.688;2023-03-11T07:52:07;99566.44;;;6.23
51149;BMP280;37210;50.058;8.688;2023-03-11T07:54:34;99542.47;;;6.76
51149;BMP280;37210;50.058;8.688;2023-03-11T07:57:02;99560.91;;;7.92
51149;BMP280;37210;50.058;8.688;2023-03-11T07:59:29;99558.25;;;8.42
51149;BMP280;37210;50.058;8.688;2023-03-11T08:01:56;99553.09;;;7.83
51149;BMP280;37210;50.058;8.688;2023-03-11T08:04:25;99557.41;;;8.20
51149;BMP280;37210;50.058;8.688;2023-03-11T08:06:53;99554.41;;;9.33
51149;BMP280;37210;50.058;8.688;2023-03-11T08:09:24;99533.00;;;8.74
51149;BMP280;37210;50.058;8.688;2023-03-11T08:11:51;99570.09;;;9.30
51149;BMP280;37210;50.058;8.688;2023-03-11T08:14:18;99580.63;;;9.09
51149;BMP280;37210;50.058;8.688;2023-03-11T08:16:46;99581.34;;;9.40
51149;BMP280;37210;50.058;8.688;2023-03-11T08:19:14;99593.00;;;7.91
51149;BMP280;37210;50.058;8.688;2023-03-11T08:21:43;99532.94;;;8.80
51149;BMP280;37210;50.058;8.688;2023-03-11T08:24:12;99566.97;;;8.20
51149;BMP280;37210;50.058;8.688;2023-03-11T08:26:40;99578.16;;;8.77
51149;BMP280;37210;50.058;8.688;2023-03-11T08:29:08;99559.72;;;9.20
51149;BMP280;37210;50.058;8.688;2023-03-11T08:31:35;99589.31;;;9.11
51149;BMP280;37210;50.058;8.688;2023-03-11T08:34:05;99591.94;;;9.04
51149;BMP280;37210;50.058;8.688;2023-03-11T08:36:33;99605.94;;;8.91
51149;BMP280;37210;50.058;8.688;2023-03-11T08:39:03;99575.00;;;9.76
51149;BMP280;37210;50.058;8.688;2023-03-11T08:41:31;99592.03;;;10.28
51149;BMP280;37210;50.058;8.688;2023-03-11T08:43:58;99595.72;;;9.98
51149;BMP280;37210;50.058;8.688;2023-03-11T08:46:27;99614.00;;;9.95
51149;BMP280;37210;50.058;8.688;2023-03-11T08:48:56;99566.84;;;8.72
51149;BMP280;37210;50.058;8.688;2023-03-11T08:51:25;99618.41;;;9.95
51149;BMP280;37210;50.058;8.688;2023-03-11T08:53:54;99620.22;;;9.81
51149;BMP280;37210;50.058;8.688;2023-03-11T08:56:23;99584.13;;;9.04
51149;BMP280;37210;50.058;8.688;2023-03-11T08:58:51;99619.84;;;8.83
51149;BMP280;37210;50.058;8.688;2023-03-11T09:01:18;99626.50;;;9.54
51149;BMP280;37210;50.058;8.688;2023-03-11T09:03:46;99598.97;;;8.85
51149;BMP280;37210;50.058;8.688;2023-03-11T09:06:15;99614.69;;;8.65
51149;BMP280;37210;50.058;8.688;2023-03-11T09:08:44;99615.50;;;8.84
51149;BMP280;37210;50.058;8.688;2023-03-11T09:11:14;99567.81;;;8.19
51149;BMP280;37210;50.058;8.688;2023-03-11T09:13:43;99632.94;;;8.61
51149;BMP280;37210;50.058;8.688;2023-03-11T09:16:12;99625.13;;;8.25
51149;BMP280;37210;50.058;8.688;2023-03-11T09:18:41;99620.78;;;7.86
51149;BMP280;37210;50.058;8.688;2023-03-11T09:21:09;99617.31;;;8.03
51149;BMP280;37210;50.058;8.688;2023-03-11T09:23:36;99626.00;;;7.90
51149;BMP280;37210;50.058;8.688;2023-03-11T09:26:04;99640.72;;;7.75
51149;BMP280;37210;50.058;8.688;2023-03-11T09:28:32;99621.63;;;7.80
51149;BMP280;37210;50.058;8.688;2023-03-11T09:31:00;99638.91;;;7.36
51149;BMP280;37210;50.058;8.688;2023-03-11T09:33:28;99646.56;;;6.98
51149;BMP280;37210;50.058;8.688;2023-03-11T09:35:57;99635.44;;;5.94
51149;BMP280;37210;50.058;8.688;2023-03-11T09:38:25;99661.69;;;6.30
51149;BMP280;37210;50.058;8.688;2023-03-11T09:40:58;99659.22;;;5.55
51149;BMP280;37210;50.058;8.688;2023-03-11T09:43:45;99636.69;;;6.41
51149;BMP280;37210;50.058;8.688;2023-03-11T09:47:02;99640.38;;;6.77
51149;BMP280;37210;50.058;8.688;2023-03-11T09:49:58;99639.50;;;6.75
51149;BMP280;37210;50.058;8.688;2023-03-11T09:52:42;99607.47;;;5.64
51149;BMP280;37210;50.058;8.688;2023-03-11T09:55:34;99655.56;;;6.22
51149;BMP280;37210;50.058;8.688;2023-03-11T09:58:10;99604.63;;;6.41
51149;BMP280;37210;50.058;8.688;2023-03-11T10:00:42;99652.50;;;5.73
51149;BMP280;37210;50.058;8.688;2023-03-11T10:03:21;99642.81;;;6.57
51149;BMP280;37210;50.058;8.688;2023-03-11T10:06:00;99643.50;;;6.29
51149;BMP280;37210;50.058;8.688;2023-03-11T10:08:37;99652.56;;;6.91
51149;BMP280;37210;50.058;8.688;2023-03-11T10:11:26;99619.66;;;7.01
51149;BMP280;37210;50.058;8.688;2023-03-11T10:14:14;99661.06;;;6.60
51149;BMP280;37210;50.058;8.688;2023-03-11T10:16:58;99656.28;;;6.02
51149;BMP280;37210;50.058;8.688;2023-03-11T10:19:40;99666.38;;;6.80
51149;BMP280;37210;50.058;8.688;2023-03-11T10:22:20;99644.84;;;7.05
51149;BMP280;37210;50.058;8.688;2023-03-11T10:25:02;99661.38;;;7.22
51149;BMP280;37210;50.058;8.688;2023-03-11T10:27:39;99659.75;;;7.56
51149;BMP280;37210;50.058;8.688;2023-03-11T10:30:18;99657.25;;;7.96
51149;BMP280;37210;50.058;8.688;2023-03-11T10:32:53;99638.13;;;7.81
51149;BMP280;37210;50.058;8.688;2023-03-11T10:35:33;99575.47;;;6.93
51149;BMP280;37210;50.058;8.688;2023-03-11T10:38:13;99656.03;;;6.90
51149;BMP280;37210;50.058;8.688;2023-03-11T10:40:46;99664.81;;;7.09
51149;BMP280;37210;50.058;8.688;2023-03-11T10:43:16;99669.41;;;6.20
51149;BMP280;37210;50.058;8.688;2023-03-11T10:45:48;99667.72;;;6.26
51149;BMP280;37210;50.058;8.688;2023-03-11T10:48:18;99656.72;;;6.61
51149;BMP280;37210;50.058;8.688;2023-03-11T10:50:56;99666.34;;;6.74
51149;BMP280;37210;50.058;8.688;2023-03-11T10:53:28;99589.06;;;6.38
51149;BMP280;37210;50.058;8.688;2023-03-11T10:55:58;99679.25;;;6.59
51149;BMP280;37210;50.058;8.688;2023-03-11T10:58:27;99676.97;;;5.94
51149;BMP280;37210;50.058;8.688;2023-03-11T11:01:06;99673.63;;;6.07
51149;BMP280;37210;50.058;8.688;2023-03-11T11:03:43;99667.81;;;6.35
51149;BMP280;37210;50.058;8.688;2023-03-11T11:06:21;99685.59;;;5.93
51149;BMP280;37210;50.058;8.688;2023-03-11T11:09:05;99637.31;;;6.13
51149;BMP280;37210;50.058;8.688;2023-03-11T11:11:39;99682.13;;;5.88
51149;BMP280;37210;50.058;8.688;2023-03-11T11:14:07;99647.41;;;5.82
51149;BMP280;37210;50.058;8.688;2023-03-11T11:16:35;99688.78;;;6.61
51149;BMP280;37210;50.058;8.688;2023-03-11T11:19:07;99676.09;;;7.17
51149;BMP280;37210;50.058;8.688;2023-03-11T11:21:39;99653.63;;;7.31
51149;BMP280;37210;50.058;8.688;2023-03-11T11:24:14;99624.16;;;7.38
51149;BMP280;37210;50.058;8.688;2023-03-11T11:27:14;99644.09;;;7.33
51149;BMP280;37210;50.058;8.688;2023-03-11T11:29:44;99672.72;;;7.38
51149;BMP280;37210;50.058;8.688;2023-03-11T11:32:18;99651.91;;;7.39
51149;BMP280;37210;50.058;8.688;2023-03-11T11:34:57;99656.28;;;7.49
51149;BMP280;37210;50.058;8.688;2023-03-11T11:37:29;99645.88;;;7.48
51149;BMP280;37210;50.058;8.688;2023-03-11T11:40:00;99644.16;;;7.54
51149;BMP280;37210;50.058;8.688;2023-03-11T11:42:36;99551.22;;;7.02
51149;BMP280;37210;50.058;8.688;2023-03-11T11:45:12;99671.97;;;7.79
51149;BMP280;37210;50.058;8.688;2023-03-11T11:47:43;99679.78;;;7.75
51149;BMP280;37210;50.058;8.688;2023-03-11T11:50:17;99685.78;;;7.54
51149;BMP280;37210;50.058;8.688;2023-03-11T11:52:56;99623.94;;;6.87
51149;BMP280;37210;50.058;8.688;2023-03-11T11:55:29;99676.88;;;7.01
51149;BMP280;37210;50.058;8.688;2023-03-11T11:57:59;99664.03;;;7.36
51149;BMP280;37210;50.058;8.688;2023-03-11T12:00:33;99651.94;;;7.44
51149;BMP280;37210;50.058;8.688;2023-03-11T12:03:23;99664.91;;;7.38
51149;BMP280;37210;50.058;8.688;2023-03-11T12:06:10;99664.13;;;7.63
51149;BMP280;37210;50.058;8.688;2023-03-11T12:08:53;99675.41;;;7.66
51149;BMP280;37210;50.058;8.688;2023-03-11T12:11:36;99670.25;;;7.80
51149;BMP280;37210;50.058;8.688;2023-03-11T12:14:12;99666.75;;;7.70
51149;BMP280;37210;50.058;8.688;2023-03-11T12:16:51;99646.81;;;7.86
51149;BMP280;37210;50.058;8.688;2023-03-11T12:19:32;99658.09;;;7.76
51149;BMP280;37210;50.058;8.688;2023-03-11T12:22:25;99665.91;;;7.86
51149;BMP280;37210;50.058;8.688;2023-03-11T12:25:19;99608.59;;;7.49
51149;BMP280;37210;50.058;8.688;2023-03-11T12:27:57;99625.09;;;7.72
51149;BMP280;37210;50.058;8.688;2023-03-11T12:30:32;99623.38;;;7.77
51149;BMP280;37210;50.058;8.688;2023-03-11T12:33:04;99663.31;;;8.01
51149;BMP280;37210;50.058;8.688;2023-03-11T12:35:38;99639.91;;;7.92
51149;BMP280;37210;50.058;8.688;2023-03-11T12:38:15;99664.19;;;8.16
51149;BMP280;37210;50.058;8.688;2023-03-11T12:41:02;99607.56;;;6.98
51149;BMP280;37210;50.058;8.688;2023-03-11T12:43:57;99658.06;;;7.71
51149;BMP280;37210;50.058;8.688;2023-03-11T12:46:59;99654.66;;;8.15
51149;BMP280;37210;50.058;8.688;2023-03-11T12:49:43;99647.69;;;8.23
51149;BMP280;37210;50.058;8.688;2023-03-11T12:52:21;99654.63;;;7.80
51149;BMP280;37210;50.058;8.688;2023-03-11T12:55:34;99658.13;;;8.00
51149;BMP280;37210;50.058;8.688;2023-03-11T12:58:34;99622.50;;;8.16
51149;BMP280;37210;50.058;8.688;2023-03-11T13:01:43;99661.53;;;7.82
51149;BMP280;37210;50.058;8.688;2023-03-11T13:04:30;99668.50;;;7.97
51149;BMP280;37210;50.058;8.688;2023-03-11T13:07:28;99689.31;;;7.71
51149;BMP280;37210;50.058;8.688;2023-03-11T13:10:10;99686.69;;;7.62
51149;BMP280;37210;50.058;8.688;2023-03-11T13:12:42;99652.88;;;7.76
51149;BMP280;37210;50.058;8.688;2023-03-11T13:15:29;99691.13;;;8.02
51149;BMP280;37210;50.058;8.688;2023-03-11T13:18:02;99690.16;;;7.76
51149;BMP280;37210;50.058;8.688;2023-03-11T13:20:53;99685.00;;;8.03
51149;BMP280;37210;50.058;8.688;2023-03-11T13:23:33;99672.81;;;7.71
51149;BMP280;37210;50.058;8.688;2023-03-11T13:26:28;99694.41;;;7.38
51149;BMP280;37210;50.058;8.688;2023-03-11T13:29:28;99684.06;;;7.58
51149;BMP280;37210;50.058;8.688;2023-03-11T13:32:24;99696.28;;;7.93
51149;BMP280;37210;50.058;8.688;2023-03-11T13:35:10;99701.47;;;7.83
51149;BMP280;37210;50.058;8.688;2023-03-11T13:38:09;99707.53;;;7.65
51149;BMP280;37210;50.058;8.688;2023-03-11T13:40:43;99703.19;;;7.76
51149;BMP280;37210;50.058;8.688;2023-03-11T13:43:16;99698.00;;;7.78
51149;BMP280;37210;50.058;8.688;2023-03-11T13:45:49;99709.28;;;7.78
51149;BMP280;37210;50.058;8.688;2023-03-11T13:48:25;99689.31;;;7.80
51149;BMP280;37210;50.058;8.688;2023-03-11T13:50:58;99707.53;;;7.77
51149;BMP280;37210;50.058;8.688;2023-03-11T13:53:30;99685.81;;;7.68
51149;BMP280;37210;50.058;8.688;2023-03-11T13:56:04;99708.34;;;7.57
51149;BMP280;37210;50.058;8.688;2023-03-11T13:58:32;99607.63;;;7.16
51149;BMP280;37210;50.058;8.688;2023-03-11T14:01:00;99725.66;;;7.53
51149;BMP280;37210;50.058;8.688;2023-03-11T14:03:35;99714.50;;;7.74
51149;BMP280;37210;50.058;8.688;2023-03-11T14:06:11;99728.91;;;7.05
51149;BMP280;37210;50.058;8.688;2023-03-11T14:08:41;99721.00;;;6.89
51149;BMP280;37210;50.058;8.688;2023-03-11T14:11:16;99694.09;;;6.81
51149;BMP280;37210;50.058;8.688;2023-03-11T14:13:48;99736.78;;;7.20
51149;BMP280;37210;50.058;8.688;2023-03-11T14:16:19;99741.13;;;7.17
51149;BMP280;37210;50.058;8.688;2023-03-11T14:19:01;99737.75;;;7.36
51149;BMP280;37210;50.058;8.688;2023-03-11T14:21:33;99702.66;;;6.68
51149;BMP280;37210;50.058;8.688;2023-03-11T14:24:02;99688.78;;;6.63
51149;BMP280;37210;50.058;8.688;2023-03-11T14:26:33;99723.81;;;7.28
51149;BMP280;37210;50.058;8.688;2023-03-11T14:29:06;99710.91;;;7.45
51149;BMP280;37210;50.058;8.688;2023-03-11T14:31:37;99701.34;;;7.42
51149;BMP280;37210;50.058;8.688;2023-03-11T14:34:14;99689.94;;;7.11
51149;BMP280;37210;50.058;8.688;2023-03-11T14:36:44;99704.84;;;7.50
51149;BMP280;37210;50.058;8.688;2023-03-11T14:39:27;99736.09;;;7.55
51149;BMP280;37210;50.058;8.688;2023-03-11T14:42:03;99711.81;;;7.57
51149;BMP280;37210;50.058;8.688;2023-03-11T14:44:35;99701.34;;;7.44
51149;BMP280;37210;50.058;8.688;2023-03-11T14:47:10;99707.50;;;7.64
51149;BMP280;37210;50.058;8.688;2023-03-11T14:49:45;99704.06;;;7.77
51149;BMP280;37210;50.058;8.688;2023-03-11T14:52:19;99703.19;;;7.70